sensor_id;sensor_type;location;lat;lon;timestamp;P1;durP1;ratioP1;P2;durP2;ratioP2
3101;SDS011;1561;42.666;23.392;2023-07-31T00:00:05;4.82;;;4.43;;
3101;SDS011;1561;42.666;23.392;2023-07-31T00:02:34;5.18;;;4.60;;
3101;SDS011;1561;42.666;23.392;2023-07-31T00:05:01;4.70;;;4.40;;
3101;SDS011;1561;42.666;23.392;2023-07-31T00:07:29;4.82;;;4.53;;
3101;SDS011;1561;42.666;23.392;2023-07-31T00:09:58;5.00;;;4.60;;
3101;SDS011;1561;42.666;23.392;2023-07-31T00:12:26;5.32;;;4.85;;
3101;SDS011;1561;42.666;23.392;2023-07-31T00:14:58;5.30;;;4.90;;
3101;SDS011;1561;42.666;23.392;2023-07-31T00:17:25;8.13;;;4.80;;
3101;SDS011;1561;42.666;23.392;2023-07-31T00:19:52;5.05;;;4.65;;
3101;SDS011;1561;42.666;23.392;2023-07-31T00:22:20;5.22;;;4.82;;
3101;SDS011;1561;42.666;23.392;2023-07-31T00:24:50;5.43;;;5.03;;
3101;SDS011;1561;42.666;23.392;2023-07-31T00:27:17;5.22;;;4.82;;
3101;SDS011;1561;42.666;23.392;2023-07-31T00:29:46;4.80;;;4.30;;
3101;SDS011;1561;42.666;23.392;2023-07-31T00:32:16;6.55;;;4.90;;
3101;SDS011;1561;42.666;23.392;2023-07-31T00:34:43;5.30;;;4.90;;
3101;SDS011;1561;42.666;23.392;2023-07-31T00:37:10;5.40;;;5.00;;
3101;SDS011;1561;42.666;23.392;2023-07-31T00:39:37;5.28;;;4.88;;
3101;SDS011;1561;42.666;23.392;2023-07-31T00:42:05;4.80;;;4.50;;
3101;SDS011;1561;42.666;23.392;2023-07-31T00:44:33;6.72;;;6.13;;
3101;SDS011;1561;42.666;23.392;2023-07-31T00:47:03;5.28;;;4.88;;
3101;SDS011;1561;42.666;23.392;2023-07-31T00:49:30;5.90;;;5.43;;
3101;SDS011;1561;42.666;23.392;2023-07-31T00:51:59;5.95;;;5.55;;
3101;SDS011;1561;42.666;23.392;2023-07-31T00:54:25;7.05;;;6.50;;
3101;SDS011;1561;42.666;23.392;2023-07-31T00:56:54;6.88;;;5.78;;
3101;SDS011;1561;42.666;23.392;2023-07-31T00:59:21;6.63;;;5.97;;
3101;SDS011;1561;42.666;23.392;2023-07-31T01:01:48;6.78;;;6.20;;
3101;SDS011;1561;42.666;23.392;2023-07-31T01:04:19;7.57;;;6.93;;
3101;SDS011;1561;42.666;23.392;2023-07-31T01:06:48;8.07;;;7.47;;
3101;SDS011;1561;42.666;23.392;2023-07-31T01:09:23;10.60;;;9.60;;
3101;SDS011;1561;42.666;23.392;2023-07-31T01:12:00;10.38;;;9.48;;
3101;SDS011;1561;42.666;23.392;2023-07-31T01:14:29;11.07;;;10.07;;
3101;SDS011;1561;42.666;23.392;2023-07-31T01:16:56;11.95;;;10.95;;
3101;SDS011;1561;42.666;23.392;2023-07-31T01:19:25;11.80;;;10.77;;
3101;SDS011;1561;42.666;23.392;2023-07-31T01:24:48;12.05;;;10.85;;
3101;SDS011;1561;42.666;23.392;2023-07-31T01:27:30;13.68;;;12.40;;
3101;SDS011;1561;42.666;23.392;2023-07-31T01:30:02;13.32;;;12.05;;
3101;SDS011;1561;42.666;23.392;2023-07-31T01:32:36;14.48;;;13.18;;
3101;SDS011;1561;42.666;23.392;2023-07-31T01:35:07;14.52;;;13.23;;
3101;SDS011;1561;42.666;23.392;2023-07-31T01:37:34;15.60;;;14.15;;
3101;SDS011;1561;42.666;23.392;2023-07-31T01:40:02;14.98;;;13.68;;
3101;SDS011;1561;42.666;23.392;2023-07-31T01:42:36;16.23;;;14.60;;
3101;SDS011;1561;42.666;23.392;2023-07-31T01:45:05;16.75;;;15.05;;
3101;SDS011;1561;42.666;23.392;2023-07-31T01:47:34;18.77;;;16.98;;
3101;SDS011;1561;42.666;23.392;2023-07-31T01:50:01;18.27;;;16.60;;
3101;SDS011;1561;42.666;23.392;2023-07-31T01:52:31;17.55;;;15.95;;
3101;SDS011;1561;42.666;23.392;2023-07-31T01:54:58;19.52;;;17.58;;
3101;SDS011;1561;42.666;23.392;2023-07-31T01:57:26;21.23;;;19.23;;
3101;SDS011;1561;42.666;23.392;2023-07-31T01:59:55;21.58;;;19.58;;
3101;SDS011;1561;42.666;23.392;2023-07-31T02:02:22;22.27;;;20.27;;
3101;SDS011;1561;42.666;23.392;2023-07-31T02:04:50;21.70;;;19.60;;
3101;SDS011;1561;42.666;23.392;2023-07-31T02:07:19;21.30;;;19.20;;
3101;SDS011;1561;42.666;23.392;2023-07-31T02:09:48;23.73;;;21.45;;
3101;SDS011;1561;42.666;23.392;2023-07-31T02:12:15;23.77;;;21.38;;
3101;SDS011;1561;42.666;23.392;2023-07-31T02:14:43;22.60;;;20.40;;
3101;SDS011;1561;42.666;23.392;2023-07-31T02:17:12;22.67;;;20.38;;
3101;SDS011;1561;42.666;23.392;2023-07-31T02:19:39;24.27;;;21.85;;
3101;SDS011;1561;42.666;23.392;2023-07-31T02:22:07;23.88;;;21.55;;
3101;SDS011;1561;42.666;23.392;2023-07-31T02:24:34;24.67;;;22.25;;
3101;SDS011;1561;42.666;23.392;2023-07-31T02:27:05;25.20;;;22.73;;
3101;SDS011;1561;42.666;23.392;2023-07-31T02:29:33;25.45;;;22.85;;
3101;SDS011;1561;42.666;23.392;2023-07-31T02:32:03;25.20;;;22.70;;
3101;SDS011;1561;42.666;23.392;2023-07-31T02:34:32;23.70;;;21.20;;
3101;SDS011;1561;42.666;23.392;2023-07-31T02:36:59;24.58;;;22.15;;
3101;SDS011;1561;42.666;23.392;2023-07-31T02:39:29;24.77;;;22.38;;
3101;SDS011;1561;42.666;23.392;2023-07-31T02:41:56;25.33;;;22.73;;
3101;SDS011;1561;42.666;23.392;2023-07-31T02:44:26;26.35;;;23.65;;
3101;SDS011;1561;42.666;23.392;2023-07-31T02:46:53;25.33;;;22.63;;
3101;SDS011;1561;42.666;23.392;2023-07-31T02:49:23;25.17;;;22.55;;
3101;SDS011;1561;42.666;23.392;2023-07-31T02:51:53;26.45;;;23.73;;
3101;SDS011;1561;42.666;23.392;2023-07-31T02:54:20;25.65;;;23.15;;
3101;SDS011;1561;42.666;23.392;2023-07-31T02:56:49;27.13;;;24.42;;
3101;SDS011;1561;42.666;23.392;2023-07-31T02:59:16;24.65;;;22.15;;
3101;SDS011;1561;42.666;23.392;2023-07-31T03:01:50;25.73;;;23.13;;
3101;SDS011;1561;42.666;23.392;2023-07-31T03:04:18;26.40;;;23.60;;
3101;SDS011;1561;42.666;23.392;2023-07-31T03:06:45;25.27;;;22.67;;
3101;SDS011;1561;42.666;23.392;2023-07-31T03:09:15;25.35;;;22.63;;
3101;SDS011;1561;42.666;23.392;2023-07-31T03:11:46;25.05;;;22.65;;
3101;SDS011;1561;42.666;23.392;2023-07-31T03:14:20;25.42;;;22.77;;
3101;SDS011;1561;42.666;23.392;2023-07-31T03:16:47;25.75;;;23.08;;
3101;SDS011;1561;42.666;23.392;2023-07-31T03:19:15;24.45;;;21.92;;
3101;SDS011;1561;42.666;23.392;2023-07-31T03:21:41;22.10;;;19.92;;
3101;SDS011;1561;42.666;23.392;2023-07-31T03:24:11;24.75;;;22.17;;
3101;SDS011;1561;42.666;23.392;2023-07-31T03:26:43;24.17;;;21.77;;
3101;SDS011;1561;42.666;23.392;2023-07-31T03:29:14;24.95;;;22.55;;
3101;SDS011;1561;42.666;23.392;2023-07-31T03:31:41;24.02;;;21.60;;
3101;SDS011;1561;42.666;23.392;2023-07-31T03:34:08;24.95;;;22.55;;
3101;SDS011;1561;42.666;23.392;2023-07-31T03:36:36;24.15;;;21.73;;
3101;SDS011;1561;42.666;23.392;2023-07-31T03:39:06;24.05;;;21.13;;
3101;SDS011;1561;42.666;23.392;2023-07-31T03:41:33;26.30;;;23.55;;
3101;SDS011;1561;42.666;23.392;2023-07-31T03:44:01;24.17;;;21.77;;
3101;SDS011;1561;42.666;23.392;2023-07-31T03:46:28;25.27;;;22.70;;
3101;SDS011;1561;42.666;23.392;2023-07-31T03:48:57;24.80;;;22.35;;
3101;SDS011;1561;42.666;23.392;2023-07-31T03:51:23;26.77;;;24.17;;
3101;SDS011;1561;42.666;23.392;2023-07-31T03:53:50;25.23;;;22.63;;
3101;SDS011;1561;42.666;23.392;2023-07-31T03:56:17;24.77;;;22.27;;
3101;SDS011;1561;42.666;23.392;2023-07-31T03:58:45;26.70;;;23.90;;
3101;SDS011;1561;42.666;23.392;2023-07-31T04:01:16;25.73;;;23.13;;
3101;SDS011;1561;42.666;23.392;2023-07-31T04:03:44;25.20;;;22.63;;
3101;SDS011;1561;42.666;23.392;2023-07-31T04:06:11;24.60;;;22.08;;
3101;SDS011;1561;42.666;23.392;2023-07-31T04:08:38;23.73;;;21.27;;
3101;SDS011;1561;42.666;23.392;2023-07-31T04:11:06;23.88;;;21.42;;
3101;SDS011;1561;42.666;23.392;2023-07-31T04:13:34;25.67;;;22.75;;
3101;SDS011;1561;42.666;23.392;2023-07-31T04:16:01;28.83;;;22.65;;
3101;SDS011;1561;42.666;23.392;2023-07-31T04:18:31;23.92;;;21.42;;
3101;SDS011;1561;42.666;23.392;2023-07-31T04:20:59;26.35;;;23.55;;
3101;SDS011;1561;42.666;23.392;2023-07-31T04:23:26;24.40;;;21.85;;
3101;SDS011;1561;42.666;23.392;2023-07-31T04:25:53;26.30;;;23.38;;
3101;SDS011;1561;42.666;23.392;2023-07-31T04:28:23;24.33;;;21.88;;
3101;SDS011;1561;42.666;23.392;2023-07-31T04:30:51;22.77;;;20.38;;
3101;SDS011;1561;42.666;23.392;2023-07-31T04:33:17;24.48;;;21.88;;
3101;SDS011;1561;42.666;23.392;2023-07-31T04:35:52;25.45;;;22.75;;
3101;SDS011;1561;42.666;23.392;2023-07-31T04:38:19;23.38;;;21.08;;
3101;SDS011;1561;42.666;23.392;2023-07-31T04:40:55;23.60;;;21.20;;
3101;SDS011;1561;42.666;23.392;2023-07-31T04:43:22;26.33;;;23.63;;
3101;SDS011;1561;42.666;23.392;2023-07-31T04:45:51;26.42;;;23.23;;
3101;SDS011;1561;42.666;23.392;2023-07-31T04:48:19;24.17;;;21.63;;
3101;SDS011;1561;42.666;23.392;2023-07-31T04:50:47;24.02;;;21.63;;
3101;SDS011;1561;42.666;23.392;2023-07-31T04:53:16;25.23;;;21.67;;
3101;SDS011;1561;42.666;23.392;2023-07-31T04:55:43;28.38;;;22.83;;
3101;SDS011;1561;42.666;23.392;2023-07-31T04:58:12;20.88;;;18.67;;
3101;SDS011;1561;42.666;23.392;2023-07-31T05:00:39;28.45;;;22.83;;
3101;SDS011;1561;42.666;23.392;2023-07-31T05:03:06;23.98;;;21.38;;
3101;SDS011;1561;42.666;23.392;2023-07-31T05:05:34;22.50;;;20.08;;
3101;SDS011;1561;42.666;23.392;2023-07-31T05:08:01;23.75;;;21.45;;
3101;SDS011;1561;42.666;23.392;2023-07-31T05:10:31;23.05;;;20.45;;
3101;SDS011;1561;42.666;23.392;2023-07-31T05:12:59;23.73;;;21.42;;
3101;SDS011;1561;42.666;23.392;2023-07-31T05:15:26;26.90;;;24.02;;
3101;SDS011;1561;42.666;23.392;2023-07-31T05:17:58;22.15;;;19.23;;
3101;SDS011;1561;42.666;23.392;2023-07-31T05:20:26;23.13;;;20.05;;
3101;SDS011;1561;42.666;23.392;2023-07-31T05:22:56;23.02;;;20.75;;
3101;SDS011;1561;42.666;23.392;2023-07-31T05:25:23;22.00;;;19.90;;
3101;SDS011;1561;42.666;23.392;2023-07-31T05:30:39;19.35;;;17.60;;
3101;SDS011;1561;42.666;23.392;2023-07-31T05:33:08;20.80;;;18.80;;
3101;SDS011;1561;42.666;23.392;2023-07-31T05:35:37;18.40;;;16.50;;
3101;SDS011;1561;42.666;23.392;2023-07-31T05:38:10;18.73;;;17.02;;
3101;SDS011;1561;42.666;23.392;2023-07-31T05:40:36;17.63;;;16.02;;
3101;SDS011;1561;42.666;23.392;2023-07-31T05:43:03;18.42;;;16.75;;
3101;SDS011;1561;42.666;23.392;2023-07-31T05:45:34;18.20;;;16.50;;
3101;SDS011;1561;42.666;23.392;2023-07-31T05:48:03;15.98;;;14.60;;
3101;SDS011;1561;42.666;23.392;2023-07-31T05:50:33;16.40;;;14.90;;
3101;SDS011;1561;42.666;23.392;2023-07-31T05:53:00;15.93;;;14.63;;
3101;SDS011;1561;42.666;23.392;2023-07-31T05:55:29;16.10;;;14.60;;
3101;SDS011;1561;42.666;23.392;2023-07-31T05:57:58;17.02;;;15.45;;
3101;SDS011;1561;42.666;23.392;2023-07-31T06:00:29;14.55;;;13.25;;
3101;SDS011;1561;42.666;23.392;2023-07-31T06:02:59;18.63;;;13.23;;
3101;SDS011;1561;42.666;23.392;2023-07-31T06:05:25;14.57;;;13.18;;
3101;SDS011;1561;42.666;23.392;2023-07-31T06:07:55;12.48;;;11.15;;
3101;SDS011;1561;42.666;23.392;2023-07-31T06:10:24;12.13;;;11.13;;
3101;SDS011;1561;42.666;23.392;2023-07-31T06:12:52;10.50;;;9.70;;
3101;SDS011;1561;42.666;23.392;2023-07-31T06:15:20;11.55;;;10.65;;
3101;SDS011;1561;42.666;23.392;2023-07-31T06:17:50;11.07;;;9.98;;
3101;SDS011;1561;42.666;23.392;2023-07-31T06:20:20;12.65;;;10.77;;
3101;SDS011;1561;42.666;23.392;2023-07-31T06:22:58;11.55;;;10.55;;
3101;SDS011;1561;42.666;23.392;2023-07-31T06:25:30;10.88;;;9.98;;
3101;SDS011;1561;42.666;23.392;2023-07-31T06:27:58;10.25;;;8.90;;
3101;SDS011;1561;42.666;23.392;2023-07-31T06:30:25;9.20;;;8.30;;
3101;SDS011;1561;42.666;23.392;2023-07-31T06:32:52;11.52;;;7.25;;
3101;SDS011;1561;42.666;23.392;2023-07-31T06:35:24;7.78;;;7.00;;
3101;SDS011;1561;42.666;23.392;2023-07-31T06:37:51;7.63;;;7.00;;
3101;SDS011;1561;42.666;23.392;2023-07-31T06:40:18;6.85;;;6.35;;
3101;SDS011;1561;42.666;23.392;2023-07-31T06:42:46;7.20;;;6.70;;
3101;SDS011;1561;42.666;23.392;2023-07-31T06:45:14;7.30;;;6.70;;
3101;SDS011;1561;42.666;23.392;2023-07-31T06:47:43;8.10;;;7.10;;
3101;SDS011;1561;42.666;23.392;2023-07-31T06:50:11;7.30;;;6.70;;
3101;SDS011;1561;42.666;23.392;2023-07-31T06:52:42;7.28;;;6.78;;
3101;SDS011;1561;42.666;23.392;2023-07-31T06:55:17;7.50;;;6.90;;
3101;SDS011;1561;42.666;23.392;2023-07-31T06:57:46;9.32;;;6.93;;
3101;SDS011;1561;42.666;23.392;2023-07-31T07:00:16;6.85;;;6.35;;
3101;SDS011;1561;42.666;23.392;2023-07-31T07:02:44;6.53;;;5.93;;
3101;SDS011;1561;42.666;23.392;2023-07-31T07:05:15;5.88;;;5.43;;
3101;SDS011;1561;42.666;23.392;2023-07-31T07:07:45;6.40;;;5.90;;
3101;SDS011;1561;42.666;23.392;2023-07-31T07:10:12;6.05;;;5.43;;
3101;SDS011;1561;42.666;23.392;2023-07-31T07:12:39;5.63;;;5.22;;
3101;SDS011;1561;42.666;23.392;2023-07-31T07:15:06;6.65;;;5.93;;
3101;SDS011;1561;42.666;23.392;2023-07-31T07:17:34;5.55;;;4.97;;
3101;SDS011;1561;42.666;23.392;2023-07-31T07:20:06;6.13;;;5.72;;
3101;SDS011;1561;42.666;23.392;2023-07-31T07:22:34;7.50;;;5.75;;
3101;SDS011;1561;42.666;23.392;2023-07-31T07:25:04;5.95;;;5.55;;
3101;SDS011;1561;42.666;23.392;2023-07-31T07:27:33;6.80;;;6.20;;
3101;SDS011;1561;42.666;23.392;2023-07-31T07:30:03;5.65;;;5.03;;
3101;SDS011;1561;42.666;23.392;2023-07-31T07:32:33;6.45;;;5.95;;
3101;SDS011;1561;42.666;23.392;2023-07-31T07:35:02;5.63;;;4.90;;
3101;SDS011;1561;42.666;23.392;2023-07-31T07:37:29;5.75;;;5.30;;
3101;SDS011;1561;42.666;23.392;2023-07-31T07:39:56;6.00;;;5.15;;
3101;SDS011;1561;42.666;23.392;2023-07-31T07:42:28;5.65;;;5.25;;
3101;SDS011;1561;42.666;23.392;2023-07-31T07:44:56;5.82;;;5.20;;
3101;SDS011;1561;42.666;23.392;2023-07-31T07:47:24;6.30;;;5.80;;
3101;SDS011;1561;42.666;23.392;2023-07-31T07:49:51;5.65;;;5.15;;
3101;SDS011;1561;42.666;23.392;2023-07-31T07:52:19;6.32;;;5.15;;
3101;SDS011;1561;42.666;23.392;2023-07-31T07:54:47;6.38;;;5.95;;
3101;SDS011;1561;42.666;23.392;2023-07-31T07:57:16;6.13;;;5.50;;
3101;SDS011;1561;42.666;23.392;2023-07-31T07:59:47;5.13;;;4.72;;
3101;SDS011;1561;42.666;23.392;2023-07-31T08:02:17;5.30;;;4.90;;
3101;SDS011;1561;42.666;23.392;2023-07-31T08:04:46;5.53;;;4.97;;
3101;SDS011;1561;42.666;23.392;2023-07-31T08:07:13;4.97;;;4.57;;
3101;SDS011;1561;42.666;23.392;2023-07-31T08:09:41;5.10;;;4.70;;
3101;SDS011;1561;42.666;23.392;2023-07-31T08:12:09;4.68;;;4.38;;
3101;SDS011;1561;42.666;23.392;2023-07-31T08:14:37;5.38;;;4.97;;
3101;SDS011;1561;42.666;23.392;2023-07-31T08:17:06;4.95;;;4.65;;
3101;SDS011;1561;42.666;23.392;2023-07-31T08:19:33;5.40;;;4.90;;
3101;SDS011;1561;42.666;23.392;2023-07-31T08:22:00;5.50;;;5.10;;
3101;SDS011;1561;42.666;23.392;2023-07-31T08:24:26;5.95;;;5.28;;
3101;SDS011;1561;42.666;23.392;2023-07-31T08:26:53;5.10;;;4.70;;
3101;SDS011;1561;42.666;23.392;2023-07-31T08:29:22;4.93;;;4.60;;
3101;SDS011;1561;42.666;23.392;2023-07-31T08:31:49;7.85;;;4.80;;
3101;SDS011;1561;42.666;23.392;2023-07-31T08:34:17;6.05;;;5.47;;
3101;SDS011;1561;42.666;23.392;2023-07-31T08:36:44;4.95;;;4.65;;
3101;SDS011;1561;42.666;23.392;2023-07-31T08:39:11;6.07;;;5.47;;
3101;SDS011;1561;42.666;23.392;2023-07-31T08:41:39;6.18;;;5.07;;
3101;SDS011;1561;42.666;23.392;2023-07-31T08:44:06;10.45;;;6.53;;
3101;SDS011;1561;42.666;23.392;2023-07-31T08:46:33;6.72;;;6.15;;
3101;SDS011;1561;42.666;23.392;2023-07-31T08:49:01;5.55;;;4.93;;
3101;SDS011;1561;42.666;23.392;2023-07-31T08:51:35;4.50;;;4.20;;
3101;SDS011;1561;42.666;23.392;2023-07-31T08:54:03;5.25;;;4.85;;
3101;SDS011;1561;42.666;23.392;2023-07-31T08:56:31;4.68;;;4.38;;
3101;SDS011;1561;42.666;23.392;2023-07-31T08:58:59;4.90;;;4.45;;
3101;SDS011;1561;42.666;23.392;2023-07-31T09:01:29;8.05;;;4.40;;
3101;SDS011;1561;42.666;23.392;2023-07-31T09:04:04;4.70;;;4.38;;
3101;SDS011;1561;42.666;23.392;2023-07-31T09:06:35;4.57;;;4.22;;
3101;SDS011;1561;42.666;23.392;2023-07-31T09:09:03;5.00;;;4.60;;
3101;SDS011;1561;42.666;23.392;2023-07-31T09:11:30;5.03;;;4.72;;
3101;SDS011;1561;42.666;23.392;2023-07-31T09:13:58;4.40;;;4.10;;
3101;SDS011;1561;42.666;23.392;2023-07-31T09:16:33;6.45;;;5.85;;
3101;SDS011;1561;42.666;23.392;2023-07-31T09:19:01;5.72;;;4.80;;
3101;SDS011;1561;42.666;23.392;2023-07-31T09:21:31;6.47;;;4.10;;
3101;SDS011;1561;42.666;23.392;2023-07-31T09:24:07;4.43;;;4.13;;
3101;SDS011;1561;42.666;23.392;2023-07-31T09:26:35;5.00;;;4.60;;
3101;SDS011;1561;42.666;23.392;2023-07-31T09:29:04;5.38;;;4.97;;
3101;SDS011;1561;42.666;23.392;2023-07-31T09:31:46;6.90;;;6.35;;
3101;SDS011;1561;42.666;23.392;2023-07-31T09:34:12;4.97;;;4.50;;
3101;SDS011;1561;42.666;23.392;2023-07-31T09:36:41;4.97;;;4.57;;
3101;SDS011;1561;42.666;23.392;2023-07-31T09:39:10;4.38;;;4.07;;
3101;SDS011;1561;42.666;23.392;2023-07-31T09:41:39;5.65;;;5.13;;
3101;SDS011;1561;42.666;23.392;2023-07-31T09:44:07;5.28;;;4.93;;
3101;SDS011;1561;42.666;23.392;2023-07-31T09:46:40;5.75;;;5.35;;
3101;SDS011;1561;42.666;23.392;2023-07-31T09:49:07;6.85;;;4.30;;
3101;SDS011;1561;42.666;23.392;2023-07-31T09:51:35;5.38;;;4.32;;
3101;SDS011;1561;42.666;23.392;2023-07-31T09:56:51;4.70;;;4.30;;
3101;SDS011;1561;42.666;23.392;2023-07-31T09:59:22;4.35;;;4.05;;
3101;SDS011;1561;42.666;23.392;2023-07-31T10:01:50;4.63;;;4.32;;
3101;SDS011;1561;42.666;23.392;2023-07-31T10:04:23;4.30;;;4.00;;
3101;SDS011;1561;42.666;23.392;2023-07-31T10:06:56;4.80;;;4.50;;
3101;SDS011;1561;42.666;23.392;2023-07-31T10:09:28;4.50;;;4.20;;
3101;SDS011;1561;42.666;23.392;2023-07-31T10:11:59;4.60;;;4.20;;
3101;SDS011;1561;42.666;23.392;2023-07-31T10:14:28;5.57;;;4.95;;
3101;SDS011;1561;42.666;23.392;2023-07-31T10:16:57;5.63;;;5.22;;
3101;SDS011;1561;42.666;23.392;2023-07-31T10:19:27;4.30;;;4.00;;
3101;SDS011;1561;42.666;23.392;2023-07-31T10:21:56;4.03;;;3.72;;
3101;SDS011;1561;42.666;23.392;2023-07-31T10:24:24;4.15;;;3.85;;
3101;SDS011;1561;42.666;23.392;2023-07-31T10:26:53;5.20;;;3.80;;
3101;SDS011;1561;42.666;23.392;2023-07-31T10:29:24;3.88;;;3.58;;
3101;SDS011;1561;42.666;23.392;2023-07-31T10:31:56;3.83;;;3.60;;
3101;SDS011;1561;42.666;23.392;2023-07-31T10:34:24;5.15;;;3.50;;
3101;SDS011;1561;42.666;23.392;2023-07-31T10:39:46;4.03;;;3.72;;
3101;SDS011;1561;42.666;23.392;2023-07-31T10:42:28;4.05;;;3.80;;
3101;SDS011;1561;42.666;23.392;2023-07-31T10:44:57;5.13;;;4.60;;
3101;SDS011;1561;42.666;23.392;2023-07-31T10:47:25;3.80;;;3.60;;
3101;SDS011;1561;42.666;23.392;2023-07-31T10:49:52;3.90;;;3.60;;
3101;SDS011;1561;42.666;23.392;2023-07-31T10:52:37;3.63;;;3.42;;
3101;SDS011;1561;42.666;23.392;2023-07-31T10:58:05;3.92;;;3.42;;
3101;SDS011;1561;42.666;23.392;2023-07-31T11:00:36;3.60;;;3.38;;
3101;SDS011;1561;42.666;23.392;2023-07-31T11:03:06;3.67;;;3.38;;
3101;SDS011;1561;42.666;23.392;2023-07-31T11:05:43;3.13;;;2.92;;
3101;SDS011;1561;42.666;23.392;2023-07-31T11:08:14;3.90;;;3.60;;
3101;SDS011;1561;42.666;23.392;2023-07-31T11:10:44;3.63;;;3.42;;
3101;SDS011;1561;42.666;23.392;2023-07-31T11:13:13;3.63;;;3.42;;
3101;SDS011;1561;42.666;23.392;2023-07-31T11:15:43;3.28;;;3.05;;
3101;SDS011;1561;42.666;23.392;2023-07-31T11:18:12;3.58;;;3.38;;
3101;SDS011;1561;42.666;23.392;2023-07-31T11:20:41;3.88;;;3.58;;
3101;SDS011;1561;42.666;23.392;2023-07-31T11:23:11;3.50;;;3.30;;
3101;SDS011;1561;42.666;23.392;2023-07-31T11:25:38;4.20;;;3.20;;
3101;SDS011;1561;42.666;23.392;2023-07-31T11:28:09;3.83;;;3.38;;
3101;SDS011;1561;42.666;23.392;2023-07-31T11:30:39;3.78;;;3.47;;
3101;SDS011;1561;42.666;23.392;2023-07-31T11:33:07;4.18;;;3.10;;
3101;SDS011;1561;42.666;23.392;2023-07-31T11:35:40;3.97;;;3.60;;
3101;SDS011;1561;42.666;23.392;2023-07-31T11:38:11;3.20;;;2.97;;
3101;SDS011;1561;42.666;23.392;2023-07-31T11:40:42;4.10;;;3.80;;
3101;SDS011;1561;42.666;23.392;2023-07-31T11:43:23;3.85;;;3.65;;
3101;SDS011;1561;42.666;23.392;2023-07-31T11:45:54;4.07;;;3.78;;
3101;SDS011;1561;42.666;23.392;2023-07-31T11:48:24;3.70;;;3.40;;
3101;SDS011;1561;42.666;23.392;2023-07-31T11:50:52;3.35;;;3.15;;
3101;SDS011;1561;42.666;23.392;2023-07-31T11:53:22;4.07;;;3.78;;
3101;SDS011;1561;42.666;23.392;2023-07-31T11:55:53;4.15;;;3.75;;
3101;SDS011;1561;42.666;23.392;2023-07-31T11:58:25;4.95;;;4.10;;
3101;SDS011;1561;42.666;23.392;2023-07-31T12:00:54;4.30;;;4.00;;
3101;SDS011;1561;42.666;23.392;2023-07-31T12:03:27;4.65;;;4.35;;
3101;SDS011;1561;42.666;23.392;2023-07-31T12:05:58;4.30;;;4.07;;
3101;SDS011;1561;42.666;23.392;2023-07-31T12:08:25;4.70;;;4.40;;
3101;SDS011;1561;42.666;23.392;2023-07-31T12:10:54;4.80;;;4.40;;
3101;SDS011;1561;42.666;23.392;2023-07-31T12:13:33;4.72;;;4.35;;
3101;SDS011;1561;42.666;23.392;2023-07-31T12:16:01;5.72;;;4.10;;
3101;SDS011;1561;42.666;23.392;2023-07-31T12:18:31;5.18;;;4.68;;
3101;SDS011;1561;42.666;23.392;2023-07-31T12:21:01;6.55;;;4.45;;
3101;SDS011;1561;42.666;23.392;2023-07-31T12:23:29;4.90;;;4.60;;
3101;SDS011;1561;42.666;23.392;2023-07-31T12:26:01;4.95;;;4.45;;
3101;SDS011;1561;42.666;23.392;2023-07-31T12:28:36;5.70;;;5.40;;
3101;SDS011;1561;42.666;23.392;2023-07-31T12:31:04;5.65;;;5.15;;
3101;SDS011;1561;42.666;23.392;2023-07-31T12:33:33;5.10;;;4.70;;
3101;SDS011;1561;42.666;23.392;2023-07-31T12:36:01;5.50;;;5.00;;
3101;SDS011;1561;42.666;23.392;2023-07-31T12:38:33;5.95;;;5.50;;
3101;SDS011;1561;42.666;23.392;2023-07-31T12:41:00;8.48;;;6.25;;
3101;SDS011;1561;42.666;23.392;2023-07-31T12:43:28;6.70;;;6.20;;
3101;SDS011;1561;42.666;23.392;2023-07-31T12:45:59;7.18;;;6.68;;
3101;SDS011;1561;42.666;23.392;2023-07-31T12:48:31;6.43;;;5.93;;
3101;SDS011;1561;42.666;23.392;2023-07-31T12:51:01;6.60;;;5.97;;
3101;SDS011;1561;42.666;23.392;2023-07-31T12:53:29;8.10;;;7.22;;
3101;SDS011;1561;42.666;23.392;2023-07-31T12:56:02;6.57;;;6.07;;
3101;SDS011;1561;42.666;23.392;2023-07-31T12:58:29;7.47;;;6.78;;
3101;SDS011;1561;42.666;23.392;2023-07-31T13:01:02;9.65;;;6.80;;
3101;SDS011;1561;42.666;23.392;2023-07-31T13:03:29;9.85;;;7.78;;
3101;SDS011;1561;42.666;23.392;2023-07-31T13:05:58;7.55;;;6.93;;
3101;SDS011;1561;42.666;23.392;2023-07-31T13:08:25;9.65;;;7.05;;
3101;SDS011;1561;42.666;23.392;2023-07-31T13:10:53;7.53;;;7.03;;
3101;SDS011;1561;42.666;23.392;2023-07-31T13:13:23;9.05;;;8.25;;
3101;SDS011;1561;42.666;23.392;2023-07-31T13:15:51;8.43;;;7.82;;
3101;SDS011;1561;42.666;23.392;2023-07-31T13:18:23;7.45;;;6.95;;
3101;SDS011;1561;42.666;23.392;2023-07-31T13:20:52;8.10;;;7.32;;
3101;SDS011;1561;42.666;23.392;2023-07-31T13:23:24;9.00;;;8.25;;
3101;SDS011;1561;42.666;23.392;2023-07-31T13:25:52;8.68;;;7.97;;
3101;SDS011;1561;42.666;23.392;2023-07-31T13:28:24;7.80;;;7.30;;
3101;SDS011;1561;42.666;23.392;2023-07-31T13:30:52;8.32;;;7.65;;
3101;SDS011;1561;42.666;23.392;2023-07-31T13:33:19;8.18;;;7.57;;
3101;SDS011;1561;42.666;23.392;2023-07-31T13:35:49;11.95;;;10.75;;
3101;SDS011;1561;42.666;23.392;2023-07-31T13:38:16;10.70;;;9.80;;
3101;SDS011;1561;42.666;23.392;2023-07-31T13:40:46;10.00;;;9.02;;
3101;SDS011;1561;42.666;23.392;2023-07-31T13:43:19;7.35;;;6.82;;
3101;SDS011;1561;42.666;23.392;2023-07-31T13:45:47;6.90;;;6.45;;
3101;SDS011;1561;42.666;23.392;2023-07-31T13:48:15;7.97;;;7.25;;
3101;SDS011;1561;42.666;23.392;2023-07-31T13:51:03;7.32;;;6.63;;
3101;SDS011;1561;42.666;23.392;2023-07-31T13:53:35;7.10;;;6.60;;
3101;SDS011;1561;42.666;23.392;2023-07-31T13:56:02;9.10;;;8.20;;
3101;SDS011;1561;42.666;23.392;2023-07-31T13:58:32;10.65;;;9.65;;
3101;SDS011;1561;42.666;23.392;2023-07-31T14:01:00;7.43;;;6.93;;
3101;SDS011;1561;42.666;23.392;2023-07-31T14:03:28;7.18;;;6.57;;
3101;SDS011;1561;42.666;23.392;2023-07-31T14:05:55;7.25;;;6.85;;
3101;SDS011;1561;42.666;23.392;2023-07-31T14:08:24;7.30;;;6.18;;
3101;SDS011;1561;42.666;23.392;2023-07-31T14:10:52;6.70;;;6.25;;
3101;SDS011;1561;42.666;23.392;2023-07-31T14:13:21;6.10;;;5.70;;
3101;SDS011;1561;42.666;23.392;2023-07-31T14:15:53;6.28;;;5.88;;
3101;SDS011;1561;42.666;23.392;2023-07-31T14:18:23;7.38;;;6.70;;
3101;SDS011;1561;42.666;23.392;2023-07-31T14:20:51;9.45;;;8.55;;
3101;SDS011;1561;42.666;23.392;2023-07-31T14:23:21;11.60;;;9.70;;
3101;SDS011;1561;42.666;23.392;2023-07-31T14:28:37;7.43;;;6.82;;
3101;SDS011;1561;42.666;23.392;2023-07-31T14:31:04;7.45;;;6.95;;
3101;SDS011;1561;42.666;23.392;2023-07-31T14:33:35;7.43;;;6.93;;
3101;SDS011;1561;42.666;23.392;2023-07-31T14:36:11;8.23;;;7.43;;
3101;SDS011;1561;42.666;23.392;2023-07-31T14:38:38;6.07;;;5.57;;
3101;SDS011;1561;42.666;23.392;2023-07-31T14:41:05;7.95;;;7.25;;
3101;SDS011;1561;42.666;23.392;2023-07-31T14:43:33;7.15;;;6.55;;
3101;SDS011;1561;42.666;23.392;2023-07-31T14:46:01;7.47;;;6.97;;
3101;SDS011;1561;42.666;23.392;2023-07-31T14:48:28;6.68;;;6.28;;
3101;SDS011;1561;42.666;23.392;2023-07-31T14:50:58;7.88;;;7.32;;
3101;SDS011;1561;42.666;23.392;2023-07-31T14:53:25;6.57;;;6.18;;
3101;SDS011;1561;42.666;23.392;2023-07-31T14:55:56;6.65;;;6.15;;
3101;SDS011;1561;42.666;23.392;2023-07-31T14:58:25;8.20;;;7.50;;
3101;SDS011;1561;42.666;23.392;2023-07-31T15:00:54;12.10;;;11.00;;
3101;SDS011;1561;42.666;23.392;2023-07-31T15:03:23;7.45;;;6.63;;
3101;SDS011;1561;42.666;23.392;2023-07-31T15:05:52;6.28;;;5.85;;
3101;SDS011;1561;42.666;23.392;2023-07-31T15:08:19;6.25;;;5.75;;
3101;SDS011;1561;42.666;23.392;2023-07-31T15:10:49;6.50;;;6.00;;
3101;SDS011;1561;42.666;23.392;2023-07-31T15:13:22;6.85;;;6.25;;
3101;SDS011;1561;42.666;23.392;2023-07-31T15:15:49;6.47;;;6.07;;
3101;SDS011;1561;42.666;23.392;2023-07-31T15:18:32;8.13;;;7.15;;